Time;durP1;ratioP1;P1;durP2;ratioP2;P2;SDS_P1;SDS_P2;PMS_P1;PMS_P2;Temp;Humidity;BMP_temperature;BMP_pressure;BME280_temperature;BME280_humidity;BME280_pressure;Samples;Min_cycle;Max_cycle;Signal;HPM_P1;HPM_P2
2022/02/16 00:02:11;;;;;;;1.55;1.30;;;;;;;4.61;62.10;96419.97;5001116;28;20045;-88
2022/02/16 00:04:40;;;;;;;3.58;1.33;;;;;;;4.68;61.73;96425.38;5000968;28;20041;-88
2022/02/16 00:07:11;;;;;;;5.63;1.85;;;;;;;4.64;60.88;96413.72;5000656;28;20038;-85
2022/02/16 00:09:39;;;;;;;4.00;1.40;;;;;;;4.54;61.33;96414.59;5000935;28;20035;-89
2022/02/16 00:12:10;;;;;;;1.95;1.65;;;;;;;4.46;61.87;96406.81;5000904;28;20337;-86
2022/02/16 00:14:41;;;;;;;5.55;2.80;;;;;;;4.46;62.47;96411.97;5000704;28;20058;-84
2022/02/16 00:17:11;;;;;;;6.95;2.53;;;;;;;4.50;62.18;96407.31;5000445;28;20038;-86
2022/02/16 00:19:42;;;;;;;6.38;2.83;;;;;;;4.51;61.77;96407.16;5000365;28;20037;-85
2022/02/16 00:22:16;;;;;;;4.93;2.00;;;;;;;4.54;62.20;96398.28;4999856;28;20038;-85
2022/02/16 00:24:44;;;;;;;4.47;1.70;;;;;;;4.57;61.63;96386.84;5000172;28;20054;-87
2022/02/16 00:27:14;;;;;;;2.65;1.80;;;;;;;4.60;61.85;96386.56;4999282;28;20038;-84
2022/02/16 00:29:43;;;;;;;2.90;1.80;;;;;;;4.61;61.80;96386.41;4999257;28;20034;-86
2022/02/16 00:32:14;;;;;;;4.32;1.58;;;;;;;4.63;62.01;96378.50;4999553;28;20078;-87
2022/02/16 00:34:42;;;;;;;3.42;1.80;;;;;;;4.63;61.60;96386.25;4999120;28;20294;-84
2022/02/16 00:37:11;;;;;;;3.85;1.95;;;;;;;4.64;62.06;96377.56;4998766;28;20039;-85
2022/02/16 00:39:39;;;;;;;2.40;1.23;;;;;;;4.67;61.94;96372.88;4998481;28;20054;-86
2022/02/16 00:42:08;;;;;;;2.45;1.33;;;;;;;4.71;62.26;96376.00;4997727;28;20043;-86
2022/02/16 00:44:39;;;;;;;2.60;1.40;;;;;;;4.74;61.67;96379.09;4997107;28;20046;-84
2022/02/16 00:47:07;;;;;;;4.70;1.88;;;;;;;4.78;61.72;96364.09;4995787;28;20039;-84
2022/02/16 00:49:36;;;;;;;3.97;2.13;;;;;;;4.79;61.29;96370.88;4998478;28;20041;-88
2022/02/16 00:52:08;;;;;;;2.53;1.63;;;;;;;4.72;61.60;96367.25;4999966;28;20047;-89
2022/02/16 00:54:37;;;;;;;4.40;2.22;;;;;;;4.70;61.56;96366.59;5000149;28;20063;-88
2022/02/16 00:57:06;;;;;;;3.47;1.83;;;;;;;4.70;61.83;96367.44;4999589;28;20061;-88
2022/02/16 00:59:34;;;;;;;4.65;1.90;;;;;;;4.73;61.67;96369.72;4999875;28;20039;-86
2022/02/16 01:02:04;;;;;;;3.47;2.08;;;;;;;4.76;61.85;96366.00;4999733;28;20051;-88
2022/02/16 01:04:32;;;;;;;1.67;1.25;;;;;;;4.81;61.69;96358.63;4999401;28;20045;-87
2022/02/16 01:07:01;;;;;;;1.58;1.23;;;;;;;4.85;61.71;96367.69;4999202;28;20062;-88
2022/02/16 01:09:29;;;;;;;3.80;1.70;;;;;;;4.92;61.86;96362.75;4999544;28;20034;-88
2022/02/16 01:11:57;;;;;;;2.63;1.50;;;;;;;4.98;61.76;96363.88;4999799;28;20057;-87
2022/02/16 01:14:25;;;;;;;4.13;1.65;;;;;;;5.01;61.44;96358.41;4999322;28;20035;-84
2022/02/16 01:16:53;;;;;;;2.50;1.80;;;;;;;5.00;61.24;96356.78;4998312;28;20106;-87
2022/02/16 01:19:22;;;;;;;3.72;1.83;;;;;;;4.97;61.17;96349.34;4998287;28;20054;-86
2022/02/16 01:21:52;;;;;;;2.60;1.50;;;;;;;4.95;61.14;96350.31;4997916;28;20058;-84
2022/02/16 01:24:20;;;;;;;3.45;1.80;;;;;;;4.97;61.36;96339.03;4998786;28;20062;-86
2022/02/16 01:26:49;;;;;;;2.00;1.65;;;;;;;5.01;61.78;96338.56;4998064;28;20051;-85
2022/02/16 01:29:17;;;;;;;2.53;1.73;;;;;;;5.04;61.73;96337.44;4997679;28;20062;-85
2022/02/16 01:31:48;;;;;;;2.22;1.35;;;;;;;5.06;61.72;96335.50;4998042;28;20186;-86
2022/02/16 01:34:16;;;;;;;2.90;1.70;;;;;;;5.07;61.35;96329.34;4997692;28;20058;-87
2022/02/16 01:36:46;;;;;;;2.78;1.58;;;;;;;5.08;62.99;96333.56;4997626;28;20105;-84
2022/02/16 01:39:14;;;;;;;4.47;2.10;;;;;;;5.12;62.12;96330.53;4997477;28;20035;-88
2022/02/16 01:41:42;;;;;;;3.92;1.60;;;;;;;5.18;62.44;96323.91;4997056;28;20039;-84
2022/02/16 01:44:10;;;;;;;3.03;2.28;;;;;;;5.21;61.52;96322.81;4996799;28;20054;-85
2022/02/16 01:47:01;;;;;;;2.70;1.30;;;;;;;5.19;61.25;96317.78;4996271;28;20531;-84
2022/02/16 01:49:29;;;;;;;2.55;1.40;;;;;;;5.23;61.92;96320.88;4996183;28;20041;-87
2022/02/16 01:51:59;;;;;;;2.85;1.20;;;;;;;5.24;61.12;96312.97;4999074;28;20047;-87
2022/02/16 01:54:27;;;;;;;1.10;0.93;;;;;;;5.19;61.31;96320.38;4998881;28;20069;-87
2022/02/16 01:56:56;;;;;;;3.55;1.83;;;;;;;5.19;61.31;96310.03;4998623;28;20050;-90
2022/02/16 01:59:26;;;;;;;2.80;1.10;;;;;;;5.19;60.97;96310.03;4998607;28;20039;-86
2022/02/16 02:01:54;;;;;;;1.63;0.90;;;;;;;5.24;60.96;96301.81;4998985;28;20031;-85
2022/02/16 02:04:22;;;;;;;3.50;1.30;;;;;;;5.21;60.68;96291.78;4998833;28;20090;-85
2022/02/16 02:06:50;;;;;;;1.15;0.90;;;;;;;5.19;61.01;96294.53;4998265;28;20046;-86
2022/02/16 02:09:21;;;;;;;1.70;1.23;;;;;;;5.21;61.53;96284.84;4998505;28;20073;-88
2022/02/16 02:11:49;;;;;;;2.42;1.30;;;;;;;5.23;61.25;96293.25;4997776;28;20057;-85
2022/02/16 02:14:21;;;;;;;1.52;1.10;;;;;;;5.24;60.51;96283.72;4998684;28;20034;-88
2022/02/16 02:16:52;;;;;;;1.45;1.10;;;;;;;5.24;60.74;96286.28;4998334;28;20042;-85
2022/02/16 02:19:28;;;;;;;2.75;1.17;;;;;;;5.22;60.81;96278.69;4998093;28;20437;-86
2022/02/16 02:22:01;;;;;;;3.42;1.13;;;;;;;5.24;60.55;96276.75;4997747;28;20574;-84
2022/02/16 02:24:30;;;;;;;;;;;;;;;5.28;60.51;96272.88;4998550;28;20034;-87
2022/02/16 02:26:58;;;;;;;2.67;1.25;;;;;;;5.28;60.29;96274.69;4997675;28;19920;-85
2022/02/16 02:29:29;;;;;;;3.22;1.23;;;;;;;5.27;60.20;96271.28;4997633;28;20046;-85
2022/02/16 02:32:03;;;;;;;4.18;1.05;;;;;;;5.21;59.75;96266.72;4997302;28;20047;-87
2022/02/16 02:34:31;;;;;;;1.60;1.00;;;;;;;5.20;60.13;96257.34;4997294;28;20054;-86
2022/02/16 02:37:06;;;;;;;2.20;1.30;;;;;;;5.19;59.96;96258.31;4996790;28;20039;-87
2022/02/16 02:39:37;;;;;;;2.95;1.25;;;;;;;5.19;59.50;96250.56;4996744;28;20046;-86
2022/02/16 02:42:09;;;;;;;2.13;1.23;;;;;;;5.16;59.55;96243.13;4996496;28;20046;-87
2022/02/16 02:44:37;;;;;;;3.33;1.20;;;;;;;5.15;59.67;96241.50;4997263;28;20074;-85
2022/02/16 02:47:06;;;;;;;1.95;1.10;;;;;;;5.11;59.52;96238.41;4996534;28;20085;-85
2022/02/16 02:49:35;;;;;;;1.38;1.00;;;;;;;5.10;59.44;96243.75;4995777;28;20070;-84
2022/02/16 02:52:06;;;;;;;1.40;1.10;;;;;;;5.06;59.85;96232.09;4996103;28;20047;-88
2022/02/16 02:54:37;;;;;;;2.35;1.00;;;;;;;5.03;59.83;96233.22;4996147;28;20114;-85
2022/02/16 02:57:06;;;;;;;3.60;1.50;;;;;;;4.99;59.90;96231.09;4995910;28;20049;-85
2022/02/16 02:59:34;;;;;;;1.65;1.30;;;;;;;4.99;59.97;96226.75;4996159;28;20134;-87
2022/02/16 03:02:02;;;;;;;1.58;1.02;;;;;;;4.95;59.89;96218.47;4995731;28;20047;-83
2022/02/16 03:04:30;;;;;;;2.20;1.30;;;;;;;4.94;59.98;96209.13;4995868;28;20042;-85
2022/02/16 03:06:59;;;;;;;3.40;1.42;;;;;;;4.94;59.96;96203.94;4994654;28;20062;-86
2022/02/16 03:09:32;;;;;;;2.78;1.63;;;;;;;4.95;59.98;96215.91;4996504;28;20030;-88
2022/02/16 03:12:00;;;;;;;;;;;;;;;4.98;59.81;96206.22;5001459;28;20030;-90
2022/02/16 03:14:29;;;;;;;3.33;1.38;;;;;;;4.91;59.68;96203.44;5001727;28;19933;-85
2022/02/16 03:16:58;;;;;;;3.67;1.40;;;;;;;4.86;59.99;96197.94;5001318;28;20057;-88
2022/02/16 03:19:29;;;;;;;2.40;1.05;;;;;;;4.87;60.08;96200.34;5000905;28;20049;-86
2022/02/16 03:22:03;;;;;;;2.75;1.35;;;;;;;4.89;60.06;96198.41;5000347;28;20042;-86
2022/02/16 03:24:36;;;;;;;1.90;0.98;;;;;;;4.87;60.12;96192.59;5000317;28;20069;-88
2022/02/16 03:27:05;;;;;;;3.55;1.13;;;;;;;4.87;60.33;96194.38;5000123;28;20242;-84
2022/02/16 03:29:34;;;;;;;3.05;1.20;;;;;;;4.87;60.51;96191.78;4999602;28;20062;-83
2022/02/16 03:32:02;;;;;;;1.15;0.90;;;;;;;4.89;60.81;96188.09;4999981;28;20049;-85
2022/02/16 03:34:31;;;;;;;2.67;1.27;;;;;;;4.95;60.76;96184.88;4999779;28;20035;-85
2022/02/16 03:36:59;;;;;;;2.55;1.33;;;;;;;5.03;60.71;96183.28;4999627;28;20038;-88
2022/02/16 03:39:27;;;;;;;3.83;1.00;;;;;;;5.07;60.80;96172.50;5001456;28;20038;-88
2022/02/16 03:41:57;;;;;;;1.80;1.23;;;;;;;5.09;60.69;96170.53;5001562;28;20038;-86
2022/02/16 03:44:28;;;;;;;2.03;0.93;;;;;;;5.14;61.17;96170.09;5001380;28;20030;-89
2022/02/16 03:46:57;;;;;;;4.10;0.90;;;;;;;5.16;60.96;96178.50;5001149;28;20074;-88
2022/02/16 03:49:26;;;;;;;1.63;0.95;;;;;;;5.14;61.65;96180.44;5001117;28;20035;-89
2022/02/16 03:51:54;;;;;;;1.50;0.90;;;;;;;5.16;61.70;96168.16;5001394;28;20058;-86
2022/02/16 03:54:25;;;;;;;1.25;0.77;;;;;;;5.16;62.23;96166.38;5001426;28;20062;-86
2022/02/16 03:56:53;;;;;;;2.03;0.80;;;;;;;5.18;62.08;96162.78;5000958;28;20038;-88
2022/02/16 03:59:23;;;;;;;1.75;0.93;;;;;;;5.19;62.42;96159.25;5001159;28;20034;-87
2022/02/16 04:01:51;;;;;;;1.25;0.70;;;;;;;5.23;62.48;96157.97;5001100;28;20035;-89
2022/02/16 04:04:22;;;;;;;3.80;1.25;;;;;;;5.23;63.20;96151.03;5000943;28;20038;-87
2022/02/16 04:06:50;;;;;;;1.10;0.65;;;;;;;5.26;62.76;96150.69;5000819;28;20161;-91
2022/02/16 04:09:18;;;;;;;4.18;0.90;;;;;;;5.27;63.12;96141.97;5000852;28;20031;-85
2022/02/16 04:11:47;;;;;;;3.47;0.70;;;;;;;5.33;63.42;96145.69;5000874;28;20047;-87
2022/02/16 04:14:16;;;;;;;2.17;0.90;;;;;;;5.34;63.24;96145.53;5000923;28;20053;-86
2022/02/16 04:16:47;;;;;;;3.78;1.02;;;;;;;5.36;63.03;96151.38;5000775;28;20031;-84
2022/02/16 04:19:18;;;;;;;3.28;1.15;;;;;;;5.35;63.44;96143.75;5000413;28;20046;-86
2022/02/16 04:21:49;;;;;;;3.72;1.40;;;;;;;5.38;63.83;96138.28;4999974;28;20094;-88
2022/02/16 04:24:19;;;;;;;1.60;1.20;;;;;;;5.39;63.31;96139.88;5000311;28;20047;-86
2022/02/16 04:26:48;;;;;;;2.15;1.33;;;;;;;5.36;63.65;96142.81;5000167;28;20037;-86
2022/02/16 04:29:16;;;;;;;2.55;0.98;;;;;;;5.34;63.67;96142.94;5000834;28;20047;-88
2022/02/16 04:31:45;;;;;;;1.58;0.90;;;;;;;5.30;63.92;96127.91;5000528;28;20061;-88
2022/02/16 04:34:15;;;;;;;1.70;0.80;;;;;;;5.29;63.76;96129.72;5000642;28;20053;-88
2022/02/16 04:36:44;;;;;;;2.90;1.00;;;;;;;5.36;63.93;96122.91;5000241;28;20031;-84
2022/02/16 04:39:15;;;;;;;3.00;1.00;;;;;;;5.38;63.35;96117.59;5000076;28;20047;-88
2022/02/16 04:41:48;;;;;;;1.80;0.98;;;;;;;5.37;64.13;96116.75;5000361;28;20074;-86
2022/02/16 04:44:19;;;;;;;4.45;1.50;;;;;;;5.35;63.35;96108.34;5000269;28;20086;-83
2022/02/16 04:46:56;;;;;;;2.55;0.93;;;;;;;5.27;63.28;96118.72;4999412;28;20046;-85
2022/02/16 04:49:25;;;;;;;1.02;0.80;;;;;;;5.19;63.93;96108.34;4999719;28;20504;-86
2022/02/16 04:51:55;;;;;;;2.00;1.05;;;;;;;5.17;63.75;96102.53;4999779;28;20031;-86
2022/02/16 04:54:24;;;;;;;4.45;1.40;;;;;;;5.20;63.84;96109.16;4999616;28;20034;-86
2022/02/16 04:56:54;;;;;;;1.90;0.80;;;;;;;5.23;63.90;96101.91;4999278;28;20042;-86
2022/02/16 04:59:25;;;;;;;1.48;0.77;;;;;;;5.25;64.34;96097.38;4999391;28;20046;-87
2022/02/16 05:01:54;;;;;;;3.45;0.80;;;;;;;5.28;63.96;96086.69;5000155;28;20227;-83
2022/02/16 05:04:22;;;;;;;4.47;1.05;;;;;;;5.28;64.04;96091.06;4999936;28;20053;-88
2022/02/16 05:06:52;;;;;;;9.50;1.42;;;;;;;5.31;63.78;96088.16;4999619;28;20039;-88
2022/02/16 05:09:20;;;;;;;1.00;0.60;;;;;;;5.31;64.07;96086.38;4999670;28;20033;-88
2022/02/16 05:11:59;;;;;;;2.55;0.65;;;;;;;5.32;64.12;96075.06;4999919;28;20030;-87
2022/02/16 05:14:27;;;;;;;3.45;1.13;;;;;;;5.31;63.93;96081.22;4999903;28;20093;-87
2022/02/16 05:16:55;;;;;;;1.23;0.85;;;;;;;5.35;64.59;96084.28;4999294;28;20041;-87
2022/02/16 05:19:23;;;;;;;1.10;1.00;;;;;;;5.37;65.10;96080.53;4998797;28;20049;-86
2022/02/16 05:21:56;;;;;;;2.25;1.13;;;;;;;5.38;64.47;96081.38;4998768;28;20051;-87
2022/02/16 05:24:24;;;;;;;0.65;0.60;;;;;;;5.39;64.65;96077.81;4998901;28;20051;-87
2022/02/16 05:26:53;;;;;;;1.33;0.73;;;;;;;5.38;64.54;96071.03;4997687;28;20285;-86
2022/02/16 05:29:21;;;;;;;2.05;0.60;;;;;;;5.37;64.24;96070.19;4998283;28;20078;-86
2022/02/16 05:31:49;;;;;;;2.85;0.95;;;;;;;5.35;64.53;96066.97;4998597;28;20054;-87
2022/02/16 05:34:17;;;;;;;1.52;0.85;;;;;;;5.36;64.53;96055.66;4997687;28;20039;-86
2022/02/16 05:36:46;;;;;;;1.75;0.55;;;;;;;5.40;64.58;96057.91;4997897;28;20046;-84
2022/02/16 05:39:16;;;;;;;0.82;0.60;;;;;;;5.43;65.08;96057.59;4997821;28;20054;-84
2022/02/16 05:41:44;;;;;;;1.08;0.50;;;;;;;5.43;64.53;96049.84;4997408;28;20050;-86
2022/02/16 05:44:13;;;;;;;0.85;0.50;;;;;;;5.40;64.97;96042.41;4995725;28;20026;-87
2022/02/16 05:46:50;;;;;;;1.20;1.02;;;;;;;5.39;65.17;96043.38;4996994;28;20085;-84
2022/02/16 05:49:18;;;;;;;2.13;0.90;;;;;;;5.37;64.90;96044.34;4996915;28;20054;-88
2022/02/16 05:51:46;;;;;;;3.30;1.45;;;;;;;5.37;65.10;96038.38;4997655;28;20034;-85
2022/02/16 05:54:16;;;;;;;1.98;1.13;;;;;;;5.38;65.87;96034.81;4997691;28;20042;-84
2022/02/16 05:56:44;;;;;;;1.73;0.93;;;;;;;5.44;65.66;96046.28;4997821;28;20535;-87
2022/02/16 05:59:12;;;;;;;3.80;0.90;;;;;;;5.45;65.43;96034.97;4998149;28;20058;-88
2022/02/16 06:02:00;;;;;;;12.95;6.07;;;;;;;5.44;65.86;96028.16;4992163;28;20058;-89
2022/02/16 06:04:34;;;;;;;6.65;3.28;;;;;;;5.36;66.17;96021.25;4995145;28;20051;-84
2022/02/16 06:07:17;;;;;;;1.80;1.13;;;;;;;5.30;66.94;96021.88;5000250;28;20060;-85
2022/02/16 06:12:45;;;;;;;2.28;0.90;;;;;;;5.29;66.07;96003.00;5009604;28;20040;-88
2022/02/16 06:15:17;;;;;;;1.70;0.93;;;;;;;5.27;66.48;95999.75;5014684;28;20034;-87
2022/02/16 06:18:06;;;;;;;0.85;0.65;;;;;;;5.29;66.60;95992.66;5016757;28;20057;-87
2022/02/16 06:20:49;;;;;;;3.92;0.90;;;;;;;5.29;65.99;96002.16;5010159;28;20034;-87
2022/02/16 06:23:24;;;;;;;;;;;;;;;5.26;66.60;95987.78;4999670;28;20101;-91
2022/02/16 06:25:56;;;;;;;2.63;1.67;;;;;;;5.26;66.40;95985.19;4992198;28;19922;-91
2022/02/16 06:28:24;;;;;;;1.60;1.10;;;;;;;5.29;66.40;95990.06;4993370;28;20051;-81
2022/02/16 06:30:52;;;;;;;1.15;1.00;;;;;;;5.34;67.47;95990.38;4997536;28;20427;-78
2022/02/16 06:33:20;;;;;;;1.35;0.80;;;;;;;5.42;67.38;95988.72;4997238;28;20073;-88
2022/02/16 06:35:47;;;;;;;1.15;0.73;;;;;;;5.48;66.48;95977.72;4998148;28;20042;-83
2022/02/16 06:38:15;;;;;;;2.17;0.57;;;;;;;5.49;66.20;95985.34;4999445;28;20054;-82
2022/02/16 06:40:42;;;;;;;1.63;1.00;;;;;;;5.49;66.42;95984.53;4981781;28;20053;-83
2022/02/16 06:43:15;;;;;;;3.00;0.77;;;;;;;5.48;66.70;95978.53;4991544;28;20423;-80
2022/02/16 06:45:42;;;;;;;0.70;0.50;;;;;;;5.50;66.41;95991.31;5000457;28;20057;-78
2022/02/16 06:48:13;;;;;;;0.75;0.60;;;;;;;5.54;66.53;95992.59;5002390;28;20535;-78
2022/02/16 06:50:40;;;;;;;2.33;0.80;;;;;;;5.57;66.37;95989.66;5001868;28;20043;-77
2022/02/16 06:53:08;;;;;;;0.90;0.75;;;;;;;5.60;66.16;95989.34;5002079;28;20057;-80
2022/02/16 06:55:35;;;;;;;2.17;0.70;;;;;;;5.62;66.16;95981.41;5001851;28;20042;-79
2022/02/16 06:58:03;;;;;;;1.23;0.57;;;;;;;5.63;66.25;95981.25;5004025;28;20061;-78
2022/02/16 07:00:32;;;;;;;0.93;0.60;;;;;;;5.61;66.10;95996.13;5002095;28;20053;-77
2022/02/16 07:03:00;;;;;;;2.97;0.50;;;;;;;5.63;65.88;95991.59;5001975;28;20088;-80
2022/02/16 07:05:27;;;;;;;1.30;0.60;;;;;;;5.64;65.90;95988.06;5001339;28;20054;-78
2022/02/16 07:07:55;;;;;;;0.80;0.40;;;;;;;5.67;65.98;95986.91;4995961;28;20540;-77
2022/02/16 07:10:22;;;;;;;1.38;0.88;;;;;;;5.69;66.17;95990.13;5010278;28;20053;-82
2022/02/16 07:12:50;;;;;;;1.77;0.60;;;;;;;5.67;65.54;95985.13;5027020;28;20065;-80
2022/02/16 07:15:20;;;;;;;3.80;1.17;;;;;;;5.63;66.04;95981.25;5012771;28;20058;-79
2022/02/16 07:17:49;;;;;;;0.82;0.60;;;;;;;5.63;66.00;95985.63;5005240;28;20061;-78
2022/02/16 07:20:17;;;;;;;2.28;0.90;;;;;;;5.65;66.53;95994.81;5006031;28;20057;-80
2022/02/16 07:22:46;;;;;;;1.63;0.73;;;;;;;5.69;66.93;95995.31;5007770;28;20062;-86
2022/02/16 07:25:15;;;;;;;0.85;0.60;;;;;;;5.70;66.13;95989.94;5006172;28;20047;-82
2022/02/16 07:28:04;;;;;;;1.50;0.50;;;;;;;5.73;66.50;95987.06;5023375;28;20470;-84
2022/02/16 07:30:32;;;;;;;1.48;0.50;;;;;;;5.76;66.02;95978.94;5024590;28;20050;-79
2022/02/16 07:33:01;;;;;;;0.82;0.70;;;;;;;5.80;66.15;95970.88;5024411;28;20250;-80
2022/02/16 07:35:29;;;;;;;2.92;0.43;;;;;;;5.80;65.89;95978.63;5023763;28;20050;-82
2022/02/16 07:37:57;;;;;;;0.75;0.50;;;;;;;5.77;66.08;95977.97;5015048;28;20424;-79
2022/02/16 07:40:27;;;;;;;1.90;0.57;;;;;;;5.77;66.07;95969.38;5002500;28;20058;-80
2022/02/16 07:42:55;;;;;;;0.50;0.40;;;;;;;5.76;66.40;95971.19;5003284;28;20520;-78
2022/02/16 07:45:22;;;;;;;0.80;0.50;;;;;;;5.79;66.57;95964.84;5002001;28;20042;-77
2022/02/16 07:47:50;;;;;;;0.90;0.40;;;;;;;5.82;66.24;95954.19;5001419;28;20057;-80
2022/02/16 07:50:19;;;;;;;1.55;0.68;;;;;;;5.85;66.67;95956.44;5001360;28;20042;-81
2022/02/16 07:52:47;;;;;;;5.57;0.57;;;;;;;5.88;67.16;95956.09;5001375;28;20415;-80
2022/02/16 07:55:14;;;;;;;0.80;0.50;;;;;;;5.93;66.62;95942.66;5000281;28;20051;-77
2022/02/16 07:57:42;;;;;;;2.38;0.80;;;;;;;5.96;66.55;95944.94;4999534;28;20046;-79
2022/02/16 08:00:11;;;;;;;2.17;0.60;;;;;;;5.99;67.17;95954.94;5000171;28;20050;-79
2022/02/16 08:02:38;;;;;;;0.47;0.45;;;;;;;6.01;66.61;95958.16;5013695;28;20064;-81
2022/02/16 08:05:07;;;;;;;0.85;0.50;;;;;;;6.03;66.85;95960.59;5000835;28;20042;-79
2022/02/16 08:07:39;;;;;;;0.85;0.40;;;;;;;6.05;67.13;95963.81;5008744;28;20054;-80
2022/02/16 08:10:08;;;;;;;0.80;0.52;;;;;;;6.04;66.91;95955.25;5007872;28;20065;-85
2022/02/16 08:12:43;;;;;;;0.32;0.32;;;;;;;6.05;67.59;95938.72;5007894;28;20077;-83
2022/02/16 08:15:11;;;;;;;0.55;0.55;;;;;;;6.05;67.27;95932.75;5007794;28;20054;-80
2022/02/16 08:17:40;;;;;;;1.83;0.60;;;;;;;6.07;67.30;95936.78;5006270;28;20065;-79
2022/02/16 08:20:10;;;;;;;0.73;0.63;;;;;;;6.07;67.31;95936.78;5004722;28;20057;-80
2022/02/16 08:22:39;;;;;;;0.55;0.47;;;;;;;6.03;67.04;95940.69;5004569;28;20065;-81
2022/02/16 08:25:08;;;;;;;3.65;0.80;;;;;;;6.02;67.12;95935.69;5007459;28;20073;-84
2022/02/16 08:27:36;;;;;;;6.15;1.27;;;;;;;6.02;67.65;95933.91;5006943;28;20066;-79
2022/02/16 08:30:04;;;;;;;7.22;0.95;;;;;;;6.04;67.50;95925.97;5004920;28;20053;-80
2022/02/16 08:32:36;;;;;;;2.08;0.85;;;;;;;6.03;67.53;95930.31;5004733;28;20078;-79
2022/02/16 08:35:04;;;;;;;1.83;0.52;;;;;;;6.05;67.29;95914.63;5003698;28;20058;-83
2022/02/16 08:37:32;;;;;;;1.95;0.68;;;;;;;6.06;67.40;95911.88;5001346;28;20064;-79
2022/02/16 08:40:01;;;;;;;3.63;2.20;;;;;;;6.05;67.60;95918.03;5001666;28;20050;-81
2022/02/16 08:42:30;;;;;;;16.00;6.20;;;;;;;6.06;67.37;95909.28;5001711;28;20050;-80
2022/02/16 08:44:58;;;;;;;32.42;5.57;;;;;;;6.06;67.20;95906.69;5002360;28;20050;-85
2022/02/16 08:47:26;;;;;;;7.57;1.33;;;;;;;6.08;67.67;95906.50;5004552;28;20054;-81
2022/02/16 08:49:54;;;;;;;2.17;0.80;;;;;;;6.10;67.93;95900.22;5004952;28;20057;-82
2022/02/16 08:52:21;;;;;;;1.05;0.57;;;;;;;6.13;67.85;95899.06;5005082;28;20047;-82
2022/02/16 08:54:49;;;;;;;0.68;0.60;;;;;;;6.16;67.72;95893.53;5004166;28;20051;-86
2022/02/16 08:57:19;;;;;;;4.75;1.10;;;;;;;6.17;67.75;95895.94;5003177;28;20054;-80
2022/02/16 08:59:47;;;;;;;2.95;0.75;;;;;;;6.21;67.20;95890.41;5002270;28;20053;-79
2022/02/16 09:02:14;;;;;;;0.57;0.32;;;;;;;6.23;67.51;95891.06;5003792;28;20519;-79
2022/02/16 09:04:43;;;;;;;0.77;0.60;;;;;;;6.23;67.38;95886.69;5022941;28;20115;-84
2022/02/16 09:07:30;;;;;;;13.05;2.95;;;;;;;6.21;67.45;95877.47;5022661;28;20061;-85
2022/02/16 09:10:00;;;;;;;3.90;0.70;;;;;;;6.22;67.75;95884.28;5021763;28;20077;-85
2022/02/16 09:12:31;;;;;;;1.33;0.82;;;;;;;6.23;68.12;95872.94;5024161;28;20128;-84
2022/02/16 09:14:59;;;;;;;0.63;0.60;;;;;;;6.25;67.81;95881.31;5024277;28;20523;-84
2022/02/16 09:17:28;;;;;;;5.45;1.05;;;;;;;6.23;67.94;95870.34;5024384;28;20060;-81
2022/02/16 09:19:56;;;;;;;10.18;1.85;;;;;;;6.22;68.02;95871.31;5024229;28;20046;-83
2022/02/16 09:22:25;;;;;;;5.63;1.60;;;;;;;6.26;68.35;95867.41;5023554;28;20568;-80
2022/02/16 09:24:54;;;;;;;14.63;2.15;;;;;;;6.28;68.65;95852.50;5023132;28;20045;-80
2022/02/16 09:27:21;;;;;;;1.00;0.60;;;;;;;6.30;68.56;95858.31;5020227;28;20054;-83
2022/02/16 09:29:53;;;;;;;20.70;1.90;;;;;;;6.32;68.43;95851.16;5018526;28;20522;-79
2022/02/16 09:32:22;;;;;;;5.93;0.88;;;;;;;6.36;68.45;95847.25;5022138;28;20060;-79
2022/02/16 09:34:54;;;;;;;10.32;3.58;;;;;;;6.43;68.90;95849.94;5020920;28;20080;-83
2022/02/16 09:37:22;;;;;;;28.35;13.07;;;;;;;6.51;68.86;95832.56;5023604;28;20049;-82
2022/02/16 09:39:51;;;;;;;9.90;4.13;;;;;;;6.58;68.77;95830.91;5024026;28;20058;-81
2022/02/16 09:42:19;;;;;;;3.03;1.52;;;;;;;6.66;68.75;95821.44;5023660;28;20504;-79
2022/02/16 09:44:51;;;;;;;1.45;0.60;;;;;;;6.70;68.52;95825.28;5025000;28;20057;-83
2022/02/16 09:47:20;;;;;;;0.60;0.50;;;;;;;6.72;68.57;95833.69;5024021;28;20045;-82
2022/02/16 09:49:48;;;;;;;2.22;0.55;;;;;;;6.76;68.62;95822.00;5024012;28;20488;-82
2022/02/16 09:52:16;;;;;;;0.82;0.73;;;;;;;6.81;68.39;95820.47;5022763;28;20060;-83
2022/02/16 09:54:43;;;;;;;1.25;0.60;;;;;;;6.85;68.33;95825.31;5021187;28;20065;-80
2022/02/16 09:57:11;;;;;;;0.55;0.52;;;;;;;6.85;68.44;95820.91;5018642;28;20042;-79
2022/02/16 09:59:39;;;;;;;0.95;0.85;;;;;;;6.90;68.53;95813.41;5019547;28;20431;-83
2022/02/16 10:02:09;;;;;;;1.55;0.65;;;;;;;6.93;68.34;95807.88;5019855;28;20046;-79
2022/02/16 10:04:41;;;;;;;0.63;0.60;;;;;;;6.96;68.67;95806.72;5001165;28;20137;-80
2022/02/16 10:07:22;;;;;;;0.85;0.43;;;;;;;6.98;69.06;95802.97;5000546;28;20063;-79
2022/02/16 10:09:50;;;;;;;0.50;0.40;;;;;;;7.01;68.68;95807.78;4999725;28;20073;-79
2022/02/16 10:12:18;;;;;;;0.52;0.40;;;;;;;7.06;68.54;95796.06;5001303;28;20050;-78
2022/02/16 10:14:46;;;;;;;0.55;0.50;;;;;;;7.09;68.71;95813.88;5005829;28;20054;-80
2022/02/16 10:17:19;;;;;;;4.03;0.50;;;;;;;7.13;68.93;95807.34;4999380;28;20513;-80
2022/02/16 10:19:50;;;;;;;2.42;1.30;;;;;;;7.15;68.42;95806.19;4990857;28;20050;-81
2022/02/16 10:22:19;;;;;;;20.15;11.65;;;;;;;7.20;68.76;95813.44;5041143;22;20057;-77
2022/02/16 10:24:47;;;;;;;2.63;1.33;;;;;;;7.22;68.24;95808.88;5010791;28;20057;-77
2022/02/16 10:27:16;;;;;;;0.88;0.38;;;;;;;7.24;68.75;95796.53;5012518;28;20045;-77
2022/02/16 10:29:45;;;;;;;0.35;0.30;;;;;;;7.28;68.65;95795.19;5012523;28;20423;-76
2022/02/16 10:32:26;;;;;;;0.30;0.30;;;;;;;7.32;69.10;95801.59;5012607;28;20496;-76
2022/02/16 10:34:57;;;;;;;0.28;0.28;;;;;;;7.31;68.60;95792.22;5013146;28;20054;-77
2022/02/16 10:37:33;;;;;;;1.10;0.50;;;;;;;7.34;68.56;95798.81;5012553;28;20046;-77
2022/02/16 10:40:06;;;;;;;1.02;0.93;;;;;;;7.39;68.28;95801.66;5012559;28;20124;-76
2022/02/16 10:42:34;;;;;;;2.28;0.60;;;;;;;7.40;68.65;95805.88;5012104;28;20054;-76
2022/02/16 10:45:07;;;;;;;1.05;0.40;;;;;;;7.42;68.63;95812.50;5012567;28;20052;-77
2022/02/16 10:47:55;;;;;;;1.27;0.50;;;;;;;7.43;68.68;95802.91;5011968;28;20050;-77
2022/02/16 10:50:26;;;;;;;0.40;0.35;;;;;;;7.45;68.78;95794.97;5012460;28;20528;-77
2022/02/16 10:52:56;;;;;;;0.77;0.50;;;;;;;7.46;68.56;95794.00;5012378;28;20714;-77
2022/02/16 10:55:41;;;;;;;0.68;0.50;;;;;;;7.48;68.92;95784.22;5012423;28;20561;-77
2022/02/16 10:58:10;;;;;;;0.57;0.57;;;;;;;7.48;68.69;95785.03;5012488;28;20053;-76
2022/02/16 11:00:40;;;;;;;0.85;0.50;;;;;;;7.51;68.86;95783.84;5012193;28;20073;-77
2022/02/16 11:03:10;;;;;;;0.50;0.40;;;;;;;7.52;69.10;95769.88;5012551;28;20042;-76
2022/02/16 11:05:43;;;;;;;0.52;0.22;;;;;;;7.54;69.23;95760.13;5018437;28;20050;-77
2022/02/16 11:08:13;;;;;;;0.22;0.22;;;;;;;7.56;69.25;95751.16;5026129;28;20057;-77
2022/02/16 11:10:45;;;;;;;0.20;0.20;;;;;;;7.61;69.64;95737.66;5030023;28;20050;-77
2022/02/16 11:13:15;;;;;;;0.85;0.30;;;;;;;7.66;69.22;95745.69;5014273;28;20056;-76
2022/02/16 11:15:45;;;;;;;1.27;0.20;;;;;;;7.68;69.45;95738.53;5012767;28;20428;-77
2022/02/16 11:18:14;;;;;;;0.55;0.20;;;;;;;7.71;69.25;95732.16;5013766;28;20057;-77
2022/02/16 11:20:44;;;;;;;0.52;0.20;;;;;;;7.72;69.77;95757.94;5012147;28;20056;-76
2022/02/16 11:23:13;;;;;;;0.30;0.30;;;;;;;7.73;69.45;95735.38;5011813;28;20050;-77
2022/02/16 11:25:44;;;;;;;0.40;0.40;;;;;;;7.73;69.81;95740.56;5012056;28;20049;-76
2022/02/16 11:28:13;;;;;;;0.77;0.30;;;;;;;7.73;69.99;95730.19;5011724;28;20535;-76
2022/02/16 11:30:44;;;;;;;1.30;0.50;;;;;;;7.73;70.38;95720.59;5011977;28;20508;-76
2022/02/16 11:33:18;;;;;;;0.63;0.40;;;;;;;7.74;70.24;95727.41;5014842;28;20064;-76
2022/02/16 11:35:53;;;;;;;0.50;0.32;;;;;;;7.75;70.35;95723.81;5015522;28;20078;-77
2022/02/16 11:38:23;;;;;;;0.45;0.30;;;;;;;7.79;70.27;95712.06;5015567;28;20045;-76
2022/02/16 11:40:53;;;;;;;0.40;0.40;;;;;;;7.81;70.54;95710.09;5015461;28;20497;-76
2022/02/16 11:43:23;;;;;;;0.80;0.70;;;;;;;7.84;70.23;95714.09;5018070;28;20061;-76
2022/02/16 11:46:01;;;;;;;0.50;0.50;;;;;;;7.87;70.42;95726.72;5016885;28;20049;-76
2022/02/16 11:48:50;;;;;;;0.43;0.40;;;;;;;7.90;70.44;95730.75;5016484;28;20065;-77
2022/02/16 11:51:46;;;;;;;0.60;0.35;;;;;;;7.92;70.32;95726.19;5017114;28;20057;-77
2022/02/16 11:54:53;;;;;;;0.32;0.32;;;;;;;7.94;70.50;95730.19;5017257;28;20049;-76
2022/02/16 11:57:44;;;;;;;0.30;0.30;;;;;;;7.97;70.22;95734.19;5014572;28;20125;-76
2022/02/16 12:00:26;;;;;;;0.32;0.30;;;;;;;7.99;70.19;95732.22;5015829;28;20148;-77